sensor_id;sensor_type;location;lat;lon;timestamp;pressure;altitude;pressure_sealevel;temperature;humidity
84990;BME280;75307;53.836;10.476;2024-02-26T00:01:59;100293.78;;;0.28;84.89
84990;BME280;75307;53.836;10.476;2024-02-26T00:04:02;100293.81;;;0.30;84.65
84990;BME280;75307;53.836;10.476;2024-02-26T00:06:04;100291.22;;;0.31;84.64
84990;BME280;75307;53.836;10.476;2024-02-26T00:08:06;100292.94;;;0.32;84.92
84990;BME280;75307;53.836;10.476;2024-02-26T00:10:09;100293.78;;;0.28;85.01
84990;BME280;75307;53.836;10.476;2024-02-26T00:12:10;100300.69;;;0.26;84.91
84990;BME280;75307;53.836;10.476;2024-02-26T00:14:11;100295.53;;;0.24;85.06
84990;BME280;75307;53.836;10.476;2024-02-26T00:16:13;100305.00;;;0.21;84.88
84990;BME280;75307;53.836;10.476;2024-02-26T00:18:15;100303.25;;;0.18;84.99
84990;BME280;75307;53.836;10.476;2024-02-26T00:20:18;100301.53;;;0.17;84.86
84990;BME280;75307;53.836;10.476;2024-02-26T00:22:20;100309.28;;;0.19;85.09
84990;BME280;75307;53.836;10.476;2024-02-26T00:24:22;100318.75;;;0.18;84.88
84990;BME280;75307;53.836;10.476;2024-02-26T00:26:24;100317.91;;;0.16;84.94
84990;BME280;75307;53.836;10.476;2024-02-26T00:28:24;100311.03;;;0.21;85.09
84990;BME280;75307;53.836;10.476;2024-02-26T00:30:27;100317.06;;;0.22;85.42
84990;BME280;75307;53.836;10.476;2024-02-26T00:32:29;100314.47;;;0.20;84.96
84990;BME280;75307;53.836;10.476;2024-02-26T00:34:31;100315.34;;;0.19;84.91
84990;BME280;75307;53.836;10.476;2024-02-26T00:36:34;100315.34;;;0.19;84.93
84990;BME280;75307;53.836;10.476;2024-02-26T00:38:36;100302.41;;;0.22;85.12
84990;BME280;75307;53.836;10.476;2024-02-26T00:40:38;100305.00;;;0.25;84.72
84990;BME280;75307;53.836;10.476;2024-02-26T00:45:02;100307.56;;;0.22;85.26
84990;BME280;75307;53.836;10.476;2024-02-26T00:47:04;100311.88;;;0.20;85.02
84990;BME280;75307;53.836;10.476;2024-02-26T00:49:06;100315.34;;;0.15;85.06
84990;BME280;75307;53.836;10.476;2024-02-26T00:51:08;100318.75;;;0.11;84.90
84990;BME280;75307;53.836;10.476;2024-02-26T00:53:11;100318.75;;;0.12;84.95
84990;BME280;75307;53.836;10.476;2024-02-26T00:55:12;100316.19;;;0.15;84.98
84990;BME280;75307;53.836;10.476;2024-02-26T00:57:14;100311.88;;;0.17;85.27
84990;BME280;75307;53.836;10.476;2024-02-26T00:59:16;100314.47;;;0.17;85.25
84990;BME280;75307;53.836;10.476;2024-02-26T01:01:18;100318.75;;;0.12;85.00
84990;BME280;75307;53.836;10.476;2024-02-26T01:03:19;100316.13;;;0.05;85.18
84990;BME280;75307;53.836;10.476;2024-02-26T01:05:21;100318.75;;;0.00;84.95
84990;BME280;75307;53.836;10.476;2024-02-26T01:07:22;100314.41;;;-0.03;85.49
84990;BME280;75307;53.836;10.476;2024-02-26T01:09:24;100316.16;;;0.00;85.28
84990;BME280;75307;53.836;10.476;2024-02-26T01:11:26;100312.72;;;0.01;85.40
84990;BME280;75307;53.836;10.476;2024-02-26T01:13:28;100303.22;;;-0.03;85.37
84990;BME280;75307;53.836;10.476;2024-02-26T01:15:30;100314.41;;;-0.04;84.99
84990;BME280;75307;53.836;10.476;2024-02-26T01:17:31;100309.25;;;-0.09;85.12
84990;BME280;75307;53.836;10.476;2024-02-26T01:19:33;100311.81;;;-0.13;85.60
84990;BME280;75307;53.836;10.476;2024-02-26T01:21:35;100311.81;;;-0.13;85.31
84990;BME280;75307;53.836;10.476;2024-02-26T01:23:37;100315.22;;;-0.17;85.35
84990;BME280;75307;53.836;10.476;2024-02-26T01:25:40;100318.63;;;-0.24;85.67
84990;BME280;75307;53.836;10.476;2024-02-26T01:27:40;100322.09;;;-0.29;85.33
84990;BME280;75307;53.836;10.476;2024-02-26T01:29:45;100315.19;;;-0.33;85.36
84990;BME280;75307;53.836;10.476;2024-02-26T01:31:45;100324.63;;;-0.35;85.38
84990;BME280;75307;53.836;10.476;2024-02-26T01:33:47;100315.16;;;-0.36;85.74
84990;BME280;75307;53.836;10.476;2024-02-26T01:35:49;100324.63;;;-0.36;85.71
84990;BME280;75307;53.836;10.476;2024-02-26T01:37:49;100328.94;;;-0.37;85.96
84990;BME280;75307;53.836;10.476;2024-02-26T01:39:51;100316.00;;;-0.40;85.90
84990;BME280;75307;53.836;10.476;2024-02-26T01:41:55;100324.63;;;-0.42;85.94
84990;BME280;75307;53.836;10.476;2024-02-26T01:43:56;100329.78;;;-0.36;86.00
84990;BME280;75307;53.836;10.476;2024-02-26T01:45:58;100324.63;;;-0.35;86.09
84990;BME280;75307;53.836;10.476;2024-02-26T01:48:00;100326.38;;;-0.29;85.21
84990;BME280;75307;53.836;10.476;2024-02-26T01:50:02;100329.84;;;-0.29;85.43
84990;BME280;75307;53.836;10.476;2024-02-26T01:52:04;100321.19;;;-0.35;85.77
84990;BME280;75307;53.836;10.476;2024-02-26T01:54:07;100323.72;;;-0.46;84.98
84990;BME280;75307;53.836;10.476;2024-02-26T01:56:09;100322.81;;;-0.57;85.53
84990;BME280;75307;53.836;10.476;2024-02-26T01:58:13;100326.22;;;-0.66;86.16
84990;BME280;75307;53.836;10.476;2024-02-26T02:00:16;100330.47;;;-0.69;85.71
84990;BME280;75307;53.836;10.476;2024-02-26T02:02:18;100325.31;;;-0.69;85.64
84990;BME280;75307;53.836;10.476;2024-02-26T02:04:20;100321.00;;;-0.72;86.23
84990;BME280;75307;53.836;10.476;2024-02-26T02:06:23;100333.03;;;-0.74;85.86
84990;BME280;75307;53.836;10.476;2024-02-26T02:08:23;100333.88;;;-0.78;85.74
84990;BME280;75307;53.836;10.476;2024-02-26T02:10:26;100340.72;;;-0.85;86.60
84990;BME280;75307;53.836;10.476;2024-02-26T02:12:28;100339.81;;;-0.90;85.38
84990;BME280;75307;53.836;10.476;2024-02-26T02:14:31;100337.19;;;-0.96;86.24
84990;BME280;75307;53.836;10.476;2024-02-26T02:16:33;100336.34;;;-0.95;85.49
84990;BME280;75307;53.836;10.476;2024-02-26T02:18:35;100338.06;;;-0.94;85.95
84990;BME280;75307;53.836;10.476;2024-02-26T02:20:38;100331.16;;;-0.98;86.70
84990;BME280;75307;53.836;10.476;2024-02-26T02:22:39;100338.00;;;-1.03;86.55
84990;BME280;75307;53.836;10.476;2024-02-26T02:24:40;100337.13;;;-1.08;86.66
84990;BME280;75307;53.836;10.476;2024-02-26T02:26:42;100331.06;;;-1.12;86.65
84990;BME280;75307;53.836;10.476;2024-02-26T02:28:45;100329.34;;;-1.13;85.82
84990;BME280;75307;53.836;10.476;2024-02-26T02:30:48;100337.06;;;-1.14;86.57
84990;BME280;75307;53.836;10.476;2024-02-26T02:32:50;100341.34;;;-1.18;85.91
84990;BME280;75307;53.836;10.476;2024-02-26T02:34:51;100331.81;;;-1.25;86.17
84990;BME280;75307;53.836;10.476;2024-02-26T02:36:54;100338.69;;;-1.28;86.64
84990;BME280;75307;53.836;10.476;2024-02-26T02:38:56;100338.66;;;-1.32;87.17
84990;BME280;75307;53.836;10.476;2024-02-26T02:40:58;100340.31;;;-1.37;85.70
84990;BME280;75307;53.836;10.476;2024-02-26T02:42:59;100350.59;;;-1.40;86.33
84990;BME280;75307;53.836;10.476;2024-02-26T02:45:02;100344.56;;;-1.42;87.09
84990;BME280;75307;53.836;10.476;2024-02-26T02:47:04;100346.25;;;-1.44;86.18
84990;BME280;75307;53.836;10.476;2024-02-26T02:49:08;100336.81;;;-1.48;86.38
84990;BME280;75307;53.836;10.476;2024-02-26T02:51:10;100349.72;;;-1.42;86.88
84990;BME280;75307;53.836;10.476;2024-02-26T02:53:14;100342.03;;;-1.37;85.62
84990;BME280;75307;53.836;10.476;2024-02-26T02:55:16;100345.53;;;-1.31;85.94
84990;BME280;75307;53.836;10.476;2024-02-26T02:57:17;100339.47;;;-1.37;86.65
84990;BME280;75307;53.836;10.476;2024-02-26T02:59:19;100352.34;;;-1.36;86.88
84990;BME280;75307;53.836;10.476;2024-02-26T03:01:21;100345.44;;;-1.40;86.44
84990;BME280;75307;53.836;10.476;2024-02-26T03:03:23;100353.16;;;-1.41;85.81
84990;BME280;75307;53.836;10.476;2024-02-26T03:05:25;100350.56;;;-1.44;86.63
84990;BME280;75307;53.836;10.476;2024-02-26T03:07:27;100353.94;;;-1.51;86.49
84990;BME280;75307;53.836;10.476;2024-02-26T03:09:30;100349.59;;;-1.54;87.09
84990;BME280;75307;53.836;10.476;2024-02-26T03:11:32;100350.44;;;-1.58;86.10
84990;BME280;75307;53.836;10.476;2024-02-26T03:13:33;100348.66;;;-1.64;86.53
84990;BME280;75307;53.836;10.476;2024-02-26T03:15:35;100346.94;;;-1.63;86.48
84990;BME280;75307;53.836;10.476;2024-02-26T03:17:37;100342.63;;;-1.64;86.19
84990;BME280;75307;53.836;10.476;2024-02-26T03:19:39;100348.59;;;-1.68;87.22
84990;BME280;75307;53.836;10.476;2024-02-26T03:21:41;100349.41;;;-1.75;86.26
84990;BME280;75307;53.836;10.476;2024-02-26T03:23:42;100356.25;;;-1.77;86.30
84990;BME280;75307;53.836;10.476;2024-02-26T03:25:46;100355.34;;;-1.83;86.96
84990;BME280;75307;53.836;10.476;2024-02-26T03:27:48;100353.63;;;-1.82;86.07
84990;BME280;75307;53.836;10.476;2024-02-26T03:29:49;100357.91;;;-1.84;86.71
84990;BME280;75307;53.836;10.476;2024-02-26T03:31:50;100351.84;;;-1.88;87.34
84990;BME280;75307;53.836;10.476;2024-02-26T03:33:52;100367.19;;;-1.97;87.13
84990;BME280;75307;53.836;10.476;2024-02-26T03:35:54;100362.03;;;-1.98;86.41
84990;BME280;75307;53.836;10.476;2024-02-26T03:37:55;100364.56;;;-2.01;87.41
84990;BME280;75307;53.836;10.476;2024-02-26T03:39:57;100367.13;;;-2.03;87.40
84990;BME280;75307;53.836;10.476;2024-02-26T03:42:00;100368.00;;;-2.02;86.15
84990;BME280;75307;53.836;10.476;2024-02-26T03:44:02;100366.28;;;-2.03;87.23
84990;BME280;75307;53.836;10.476;2024-02-26T03:46:07;100362.78;;;-2.07;87.06
84990;BME280;75307;53.836;10.476;2024-02-26T03:48:08;100376.69;;;-1.94;87.03
84990;BME280;75307;53.836;10.476;2024-02-26T03:50:09;100380.16;;;-1.91;85.94
84990;BME280;75307;53.836;10.476;2024-02-26T03:52:11;100381.09;;;-1.86;85.93
84990;BME280;75307;53.836;10.476;2024-02-26T03:54:13;100377.72;;;-1.78;85.72
84990;BME280;75307;53.836;10.476;2024-02-26T03:56:14;100355.22;;;-1.92;86.90
84990;BME280;75307;53.836;10.476;2024-02-26T03:58:17;100376.78;;;-1.84;86.98
84990;BME280;75307;53.836;10.476;2024-02-26T04:00:19;100378.50;;;-1.86;86.34
84990;BME280;75307;53.836;10.476;2024-02-26T04:02:21;100381.03;;;-1.89;86.36
84990;BME280;75307;53.836;10.476;2024-02-26T04:04:23;100381.09;;;-1.86;87.14
84990;BME280;75307;53.836;10.476;2024-02-26T04:06:25;100388.00;;;-1.80;85.73
84990;BME280;75307;53.836;10.476;2024-02-26T04:08:27;100390.59;;;-1.78;86.19
84990;BME280;75307;53.836;10.476;2024-02-26T04:10:29;100400.03;;;-1.79;86.64
84990;BME280;75307;53.836;10.476;2024-02-26T04:12:30;100400.94;;;-1.77;85.79
84990;BME280;75307;53.836;10.476;2024-02-26T04:14:33;100398.41;;;-1.72;86.16
84990;BME280;75307;53.836;10.476;2024-02-26T04:16:35;100401.78;;;-1.76;85.52
84990;BME280;75307;53.836;10.476;2024-02-26T04:18:37;100402.59;;;-1.79;86.33
84990;BME280;75307;53.836;10.476;2024-02-26T04:20:39;100402.59;;;-1.79;87.01
84990;BME280;75307;53.836;10.476;2024-02-26T04:22:42;100405.13;;;-1.82;87.07
84990;BME280;75307;53.836;10.476;2024-02-26T04:24:44;100410.38;;;-1.76;86.23
84990;BME280;75307;53.836;10.476;2024-02-26T04:26:46;100411.19;;;-1.78;86.45
84990;BME280;75307;53.836;10.476;2024-02-26T04:28:48;100410.28;;;-1.84;86.43
84990;BME280;75307;53.836;10.476;2024-02-26T04:30:51;100424.00;;;-1.86;85.79
84990;BME280;75307;53.836;10.476;2024-02-26T04:32:53;100423.97;;;-1.88;86.84
84990;BME280;75307;53.836;10.476;2024-02-26T04:34:54;100431.75;;;-1.83;87.14
84990;BME280;75307;53.836;10.476;2024-02-26T04:36:55;100436.94;;;-1.80;86.20
84990;BME280;75307;53.836;10.476;2024-02-26T04:38:57;100448.06;;;-1.86;86.80
84990;BME280;75307;53.836;10.476;2024-02-26T04:40:58;100444.63;;;-1.85;87.05
84990;BME280;75307;53.836;10.476;2024-02-26T04:43:00;100451.50;;;-1.84;86.77
84990;BME280;75307;53.836;10.476;2024-02-26T04:45:02;100459.25;;;-1.82;86.79
84990;BME280;75307;53.836;10.476;2024-02-26T04:47:05;100459.22;;;-1.87;86.84
84990;BME280;75307;53.836;10.476;2024-02-26T04:49:08;100460.84;;;-1.92;86.88
84990;BME280;75307;53.836;10.476;2024-02-26T04:51:09;100463.41;;;-1.95;86.25
84990;BME280;75307;53.836;10.476;2024-02-26T04:53:10;100470.22;;;-1.97;86.53
84990;BME280;75307;53.836;10.476;2024-02-26T04:55:12;100474.63;;;-1.90;87.23
84990;BME280;75307;53.836;10.476;2024-02-26T04:57:14;100474.63;;;-1.88;85.69
84990;BME280;75307;53.836;10.476;2024-02-26T04:59:15;100475.50;;;-1.88;86.96
84990;BME280;75307;53.836;10.476;2024-02-26T05:01:18;100483.16;;;-1.92;86.73
84990;BME280;75307;53.836;10.476;2024-02-26T05:03:21;100483.09;;;-1.97;86.62
84990;BME280;75307;53.836;10.476;2024-02-26T05:05:23;100478.78;;;-2.01;86.93
84990;BME280;75307;53.836;10.476;2024-02-26T05:07:25;100490.75;;;-2.03;86.08
84990;BME280;75307;53.836;10.476;2024-02-26T05:09:27;100488.16;;;-2.04;87.13
84990;BME280;75307;53.836;10.476;2024-02-26T05:11:27;100481.31;;;-2.02;87.09
84990;BME280;75307;53.836;10.476;2024-02-26T05:13:29;100489.94;;;-1.99;87.13
84990;BME280;75307;53.836;10.476;2024-02-26T05:15:31;100490.81;;;-1.97;86.68
84990;BME280;75307;53.836;10.476;2024-02-26T05:17:32;100485.66;;;-2.00;86.63
84990;BME280;75307;53.836;10.476;2024-02-26T05:19:35;100481.28;;;-2.04;86.26
84990;BME280;75307;53.836;10.476;2024-02-26T05:21:37;100480.44;;;-2.03;87.19
84990;BME280;75307;53.836;10.476;2024-02-26T05:23:39;100477.00;;;-2.03;86.65
84990;BME280;75307;53.836;10.476;2024-02-26T05:25:43;100488.22;;;-1.98;86.74
84990;BME280;75307;53.836;10.476;2024-02-26T05:27:47;100490.81;;;-2.00;87.24
84990;BME280;75307;53.836;10.476;2024-02-26T05:29:49;100486.59;;;-1.92;86.75
84990;BME280;75307;53.836;10.476;2024-02-26T05:31:52;100496.16;;;-1.85;86.74
84990;BME280;75307;53.836;10.476;2024-02-26T05:33:54;100498.66;;;-1.91;86.58
84990;BME280;75307;53.836;10.476;2024-02-26T05:35:56;100495.94;;;-2.00;85.75
84990;BME280;75307;53.836;10.476;2024-02-26T05:38:04;100501.91;;;-2.02;87.33
84990;BME280;75307;53.836;10.476;2024-02-26T05:40:06;100496.75;;;-2.02;87.23
84990;BME280;75307;53.836;10.476;2024-02-26T05:42:08;100497.59;;;-2.05;87.17
84990;BME280;75307;53.836;10.476;2024-02-26T05:44:10;100507.91;;;-2.05;87.19
84990;BME280;75307;53.836;10.476;2024-02-26T05:46:12;100514.69;;;-2.10;85.97
84990;BME280;75307;53.836;10.476;2024-02-26T05:48:13;100517.22;;;-2.12;87.06
84990;BME280;75307;53.836;10.476;2024-02-26T05:50:15;100523.28;;;-2.08;87.43
84990;BME280;75307;53.836;10.476;2024-02-26T05:52:19;100512.16;;;-2.07;87.37
84990;BME280;75307;53.836;10.476;2024-02-26T05:54:20;100516.41;;;-2.09;86.77
84990;BME280;75307;53.836;10.476;2024-02-26T05:56:22;100518.97;;;-2.11;86.35
84990;BME280;75307;53.836;10.476;2024-02-26T05:58:24;100524.13;;;-2.11;87.20
84990;BME280;75307;53.836;10.476;2024-02-26T06:00:26;100529.25;;;-2.12;86.19
84990;BME280;75307;53.836;10.476;2024-02-26T06:02:28;100527.53;;;-2.12;87.15
84990;BME280;75307;53.836;10.476;2024-02-26T06:04:29;100522.38;;;-2.12;87.58
84990;BME280;75307;53.836;10.476;2024-02-26T06:06:31;100532.84;;;-2.01;86.42
84990;BME280;75307;53.836;10.476;2024-02-26T06:08:34;100543.22;;;-1.96;87.38
84990;BME280;75307;53.836;10.476;2024-02-26T06:10:35;100537.19;;;-1.97;86.10
84990;BME280;75307;53.836;10.476;2024-02-26T06:12:36;100546.66;;;-1.96;86.86
84990;BME280;75307;53.836;10.476;2024-02-26T06:14:37;100538.97;;;-1.93;87.15
84990;BME280;75307;53.836;10.476;2024-02-26T06:16:39;100543.25;;;-1.92;86.90
84990;BME280;75307;53.836;10.476;2024-02-26T06:18:41;100548.44;;;-1.90;87.15
84990;BME280;75307;53.836;10.476;2024-02-26T06:20:43;100545.94;;;-1.86;86.98
84990;BME280;75307;53.836;10.476;2024-02-26T06:22:45;100545.09;;;-1.86;87.00
84990;BME280;75307;53.836;10.476;2024-02-26T06:24:47;100551.06;;;-1.87;86.33
84990;BME280;75307;53.836;10.476;2024-02-26T06:26:49;100554.47;;;-1.91;86.35
84990;BME280;75307;53.836;10.476;2024-02-26T06:28:51;100553.63;;;-1.89;86.44
84990;BME280;75307;53.836;10.476;2024-02-26T06:30:52;100557.91;;;-1.88;87.02
84990;BME280;75307;53.836;10.476;2024-02-26T06:32:54;100558.75;;;-1.90;87.29
84990;BME280;75307;53.836;10.476;2024-02-26T06:34:55;100559.63;;;-1.90;86.38
84990;BME280;75307;53.836;10.476;2024-02-26T06:36:57;100569.84;;;-1.94;86.38
84990;BME280;75307;53.836;10.476;2024-02-26T06:38:59;100563.00;;;-1.94;87.00
84990;BME280;75307;53.836;10.476;2024-02-26T06:41:02;100569.00;;;-1.93;86.45
84990;BME280;75307;53.836;10.476;2024-02-26T06:43:04;100559.59;;;-1.91;86.95
84990;BME280;75307;53.836;10.476;2024-02-26T06:45:07;100561.41;;;-1.86;87.07
84990;BME280;75307;53.836;10.476;2024-02-26T06:47:08;100564.06;;;-1.79;86.32
84990;BME280;75307;53.836;10.476;2024-02-26T06:49:11;100546.81;;;-1.85;86.86
84990;BME280;75307;53.836;10.476;2024-02-26T06:51:13;100571.84;;;-1.76;86.62
84990;BME280;75307;53.836;10.476;2024-02-26T06:53:15;100575.34;;;-1.71;86.85
84990;BME280;75307;53.836;10.476;2024-02-26T06:55:17;100578.00;;;-1.65;87.13
84990;BME280;75307;53.836;10.476;2024-02-26T06:57:19;100578.84;;;-1.65;86.11
84990;BME280;75307;53.836;10.476;2024-02-26T06:59:21;100579.69;;;-1.66;87.10
84990;BME280;75307;53.836;10.476;2024-02-26T07:01:24;100577.94;;;-1.68;86.37
84990;BME280;75307;53.836;10.476;2024-02-26T07:03:25;100584.91;;;-1.63;85.96
84990;BME280;75307;53.836;10.476;2024-02-26T07:05:27;100588.38;;;-1.59;85.61
84990;BME280;75307;53.836;10.476;2024-02-26T07:07:28;100590.94;;;-1.59;86.63
84990;BME280;75307;53.836;10.476;2024-02-26T07:09:30;100589.28;;;-1.54;86.80
84990;BME280;75307;53.836;10.476;2024-02-26T07:11:31;100589.41;;;-1.45;85.56
84990;BME280;75307;53.836;10.476;2024-02-26T07:13:34;100598.94;;;-1.39;85.44
84990;BME280;75307;53.836;10.476;2024-02-26T07:15:36;100594.69;;;-1.36;85.64
84990;BME280;75307;53.836;10.476;2024-02-26T07:17:38;100593.03;;;-1.34;86.33
84990;BME280;75307;53.836;10.476;2024-02-26T07:19:42;100600.75;;;-1.34;85.83
84990;BME280;75307;53.836;10.476;2024-02-26T07:21:44;100600.75;;;-1.32;85.68
84990;BME280;75307;53.836;10.476;2024-02-26T07:23:45;100606.84;;;-1.28;86.69
84990;BME280;75307;53.836;10.476;2024-02-26T07:25:46;100602.56;;;-1.25;86.80
84990;BME280;75307;53.836;10.476;2024-02-26T07:27:49;100600.03;;;-1.23;85.37
84990;BME280;75307;53.836;10.476;2024-02-26T07:29:52;100598.34;;;-1.18;86.12
84990;BME280;75307;53.836;10.476;2024-02-26T07:31:54;100604.44;;;-1.15;86.59
84990;BME280;75307;53.836;10.476;2024-02-26T07:33:55;100601.88;;;-1.12;85.60
84990;BME280;75307;53.836;10.476;2024-02-26T07:35:57;100607.06;;;-1.09;85.51
84990;BME280;75307;53.836;10.476;2024-02-26T07:37:59;100597.66;;;-1.05;85.48
84990;BME280;75307;53.836;10.476;2024-02-26T07:40:01;100610.56;;;-1.02;85.51
84990;BME280;75307;53.836;10.476;2024-02-26T07:42:02;100605.47;;;-0.99;86.00
84990;BME280;75307;53.836;10.476;2024-02-26T07:44:04;100608.97;;;-0.94;85.44
84990;BME280;75307;53.836;10.476;2024-02-26T07:46:07;100602.09;;;-0.92;86.38
84990;BME280;75307;53.836;10.476;2024-02-26T07:48:08;100615.03;;;-0.87;86.05
84990;BME280;75307;53.836;10.476;2024-02-26T07:50:10;100609.06;;;-0.85;85.25
84990;BME280;75307;53.836;10.476;2024-02-26T07:52:12;100616.00;;;-0.78;86.24
84990;BME280;75307;53.836;10.476;2024-02-26T07:54:14;100616.03;;;-0.76;85.81
84990;BME280;75307;53.836;10.476;2024-02-26T07:56:16;100628.09;;;-0.73;85.11
84990;BME280;75307;53.836;10.476;2024-02-26T07:58:18;100623.84;;;-0.68;85.91
84990;BME280;75307;53.836;10.476;2024-02-26T08:00:20;100627.34;;;-0.65;86.06
84990;BME280;75307;53.836;10.476;2024-02-26T08:02:22;100624.75;;;-0.63;85.89
84990;BME280;75307;53.836;10.476;2024-02-26T08:04:25;100636.84;;;-0.62;85.78
84990;BME280;75307;53.836;10.476;2024-02-26T08:06:27;100627.31;;;-0.66;85.27
84990;BME280;75307;53.836;10.476;2024-02-26T08:08:29;100631.69;;;-0.59;86.01
84990;BME280;75307;53.836;10.476;2024-02-26T08:10:30;100646.34;;;-0.55;85.41
84990;BME280;75307;53.836;10.476;2024-02-26T08:12:32;100645.56;;;-0.49;85.30
84990;BME280;75307;53.836;10.476;2024-02-26T08:14:34;100638.75;;;-0.43;85.82
84990;BME280;75307;53.836;10.476;2024-02-26T08:16:36;100646.53;;;-0.38;85.13
84990;BME280;75307;53.836;10.476;2024-02-26T08:18:38;100649.22;;;-0.26;85.50
84990;BME280;75307;53.836;10.476;2024-02-26T08:20:40;100652.75;;;-0.16;85.68
84990;BME280;75307;53.836;10.476;2024-02-26T08:22:42;100655.41;;;-0.07;85.09
84990;BME280;75307;53.836;10.476;2024-02-26T08:24:43;100668.41;;;0.01;84.98
84990;BME280;75307;53.836;10.476;2024-02-26T08:26:45;100655.53;;;0.08;84.88
84990;BME280;75307;53.836;10.476;2024-02-26T08:28:47;100665.09;;;0.15;84.85
84990;BME280;75307;53.836;10.476;2024-02-26T08:30:49;100661.72;;;0.25;84.77
84990;BME280;75307;53.836;10.476;2024-02-26T08:32:51;100663.50;;;0.36;84.82
84990;BME280;75307;53.836;10.476;2024-02-26T08:34:54;100661.84;;;0.47;84.59
84990;BME280;75307;53.836;10.476;2024-02-26T08:36:56;100664.50;;;0.56;84.40
84990;BME280;75307;53.836;10.476;2024-02-26T08:38:58;100666.28;;;0.66;84.31
84990;BME280;75307;53.836;10.476;2024-02-26T08:41:00;100666.34;;;0.77;83.98
84990;BME280;75307;53.836;10.476;2024-02-26T08:43:01;100668.09;;;0.86;84.19
84990;BME280;75307;53.836;10.476;2024-02-26T08:45:04;100669.03;;;0.97;84.11
84990;BME280;75307;53.836;10.476;2024-02-26T08:47:06;100671.66;;;1.08;84.01
84990;BME280;75307;53.836;10.476;2024-02-26T08:49:07;100670.81;;;1.19;84.07
84990;BME280;75307;53.836;10.476;2024-02-26T08:51:09;100661.41;;;1.31;83.73
84990;BME280;75307;53.836;10.476;2024-02-26T08:53:11;100672.63;;;1.43;83.77
84990;BME280;75307;53.836;10.476;2024-02-26T08:55:13;100672.69;;;1.54;83.93
84990;BME280;75307;53.836;10.476;2024-02-26T08:57:15;100668.34;;;1.62;83.71
84990;BME280;75307;53.836;10.476;2024-02-26T08:59:16;100667.53;;;1.69;83.11
84990;BME280;75307;53.836;10.476;2024-02-26T09:01:22;100676.19;;;1.73;83.31
84990;BME280;75307;53.836;10.476;2024-02-26T09:03:24;100669.28;;;1.78;83.57
84990;BME280;75307;53.836;10.476;2024-02-26T09:05:26;100669.28;;;1.83;83.34
84990;BME280;75307;53.836;10.476;2024-02-26T09:07:28;100671.00;;;1.88;83.42
84990;BME280;75307;53.836;10.476;2024-02-26T09:09:30;100669.25;;;1.96;83.35
84990;BME280;75307;53.836;10.476;2024-02-26T09:11:32;100671.88;;;2.04;83.34
84990;BME280;75307;53.836;10.476;2024-02-26T09:13:33;100677.06;;;2.12;83.04
84990;BME280;75307;53.836;10.476;2024-02-26T09:15:34;100673.59;;;2.19;83.29
84990;BME280;75307;53.836;10.476;2024-02-26T09:17:36;100685.72;;;2.26;83.75
84990;BME280;75307;53.836;10.476;2024-02-26T09:19:38;100686.56;;;2.33;82.89
84990;BME280;75307;53.836;10.476;2024-02-26T09:21:42;100690.03;;;2.36;82.94
84990;BME280;75307;53.836;10.476;2024-02-26T09:23:44;100682.25;;;2.41;83.30
84990;BME280;75307;53.836;10.476;2024-02-26T09:25:46;100687.41;;;2.48;83.78
84990;BME280;75307;53.836;10.476;2024-02-26T09:27:47;100691.75;;;2.54;83.70
84990;BME280;75307;53.836;10.476;2024-02-26T09:29:49;100688.25;;;2.58;83.30
84990;BME280;75307;53.836;10.476;2024-02-26T09:31:51;100688.25;;;2.66;83.46
84990;BME280;75307;53.836;10.476;2024-02-26T09:33:53;100689.94;;;2.73;83.20
84990;BME280;75307;53.836;10.476;2024-02-26T09:35:54;100686.50;;;2.78;83.88
84990;BME280;75307;53.836;10.476;2024-02-26T09:37:56;100681.31;;;2.78;83.19
84990;BME280;75307;53.836;10.476;2024-02-26T09:39:59;100695.13;;;2.90;83.44
84990;BME280;75307;53.836;10.476;2024-02-26T09:42:04;100696.81;;;2.92;83.60
84990;BME280;75307;53.836;10.476;2024-02-26T09:44:06;100689.06;;;2.91;83.25
84990;BME280;75307;53.836;10.476;2024-02-26T09:46:08;100699.41;;;3.01;83.81
84990;BME280;75307;53.836;10.476;2024-02-26T09:48:10;100695.06;;;3.05;83.56
84990;BME280;75307;53.836;10.476;2024-02-26T09:50:14;100707.16;;;3.09;83.55
84990;BME280;75307;53.836;10.476;2024-02-26T09:52:19;100708.03;;;3.13;83.84
84990;BME280;75307;53.836;10.476;2024-02-26T09:54:21;100706.28;;;3.13;83.50
84990;BME280;75307;53.836;10.476;2024-02-26T09:56:28;100708.88;;;3.19;83.68
84990;BME280;75307;53.836;10.476;2024-02-26T09:58:33;100709.72;;;3.24;83.52
84990;BME280;75307;53.836;10.476;2024-02-26T10:00:37;100716.63;;;3.31;83.69
84990;BME280;75307;53.836;10.476;2024-02-26T10:02:39;100714.84;;;3.38;83.70
84990;BME280;75307;53.836;10.476;2024-02-26T10:04:42;100720.03;;;3.43;83.63
84990;BME280;75307;53.836;10.476;2024-02-26T10:06:44;100713.94;;;3.50;83.60
84990;BME280;75307;53.836;10.476;2024-02-26T10:08:47;100710.44;;;3.57;83.61
84990;BME280;75307;53.836;10.476;2024-02-26T10:10:50;100706.09;;;3.60;83.67
84990;BME280;75307;53.836;10.476;2024-02-26T10:12:53;100712.97;;;3.66;83.57
84990;BME280;75307;53.836;10.476;2024-02-26T10:14:55;100717.28;;;3.69;83.65
84990;BME280;75307;53.836;10.476;2024-02-26T10:16:57;100725.09;;;3.70;83.72
84990;BME280;75307;53.836;10.476;2024-02-26T10:18:58;100729.41;;;3.74;83.76
84990;BME280;75307;53.836;10.476;2024-02-26T10:21:01;100726.78;;;3.79;83.82
84990;BME280;75307;53.836;10.476;2024-02-26T10:23:03;100727.63;;;3.81;83.80
84990;BME280;75307;53.836;10.476;2024-02-26T10:25:05;100732.78;;;3.85;84.00
84990;BME280;75307;53.836;10.476;2024-02-26T10:27:08;100723.28;;;3.81;83.85
84990;BME280;75307;53.836;10.476;2024-02-26T10:29:12;100736.19;;;3.97;83.82
84990;BME280;75307;53.836;10.476;2024-02-26T10:31:14;100742.22;;;4.02;83.69
84990;BME280;75307;53.836;10.476;2024-02-26T10:33:16;100737.84;;;4.07;83.85
84990;BME280;75307;53.836;10.476;2024-02-26T10:35:18;100736.94;;;4.11;83.74